createdAt,value
2022-10-22T00:01:30.487Z,8.20
2022-10-22T00:07:15.076Z,9.20
2022-10-22T00:12:37.616Z,8.40
2022-10-22T00:17:59.730Z,8.10
2022-10-22T00:23:21.659Z,8.20
2022-10-22T00:28:43.874Z,7.70
2022-10-22T00:34:07.525Z,8.20
2022-10-22T00:39:32.141Z,7.70
2022-10-22T00:45:04.832Z,7.80
2022-10-22T00:50:36.003Z,8.80
2022-10-22T00:55:58.898Z,8.80
2022-10-22T01:01:30.206Z,8.20
2022-10-22T01:06:52.400Z,7.90
2022-10-22T01:12:26.532Z,7.80
2022-10-22T01:18:03.645Z,8.50
2022-10-22T01:23:37.474Z,7.60
2022-10-22T01:29:09.783Z,9.10
2022-10-22T01:34:32.553Z,8.40
2022-10-22T01:39:56.241Z,7.50
2022-10-22T01:45:18.251Z,8.30
2022-10-22T01:51:23.769Z,8.60
2022-10-22T01:57:08.057Z,8.60
2022-10-22T02:02:53.309Z,7.80
2022-10-22T02:08:49.049Z,7.40
2022-10-22T02:14:15.078Z,8.00
2022-10-22T02:20:06.527Z,8.20
2022-10-22T02:25:41.786Z,8.00
2022-10-22T02:31:24.019Z,8.00
2022-10-22T02:36:50.322Z,8.40
2022-10-22T02:42:12.889Z,7.50
2022-10-22T02:47:34.791Z,7.90
2022-10-22T02:52:57.334Z,8.70
2022-10-22T02:58:19.388Z,8.60
2022-10-22T03:03:41.061Z,8.80
2022-10-22T03:09:03.537Z,8.80
2022-10-22T03:14:25.657Z,9.80
2022-10-22T03:19:50.648Z,9.30
2022-10-22T03:25:17.636Z,9.30
2022-10-22T03:30:39.726Z,8.50
2022-10-22T03:36:01.772Z,8.70
2022-10-22T03:41:23.707Z,9.10
2022-10-22T03:46:45.372Z,8.60
2022-10-22T03:52:13.354Z,9.20
2022-10-22T03:57:35.886Z,8.50
2022-10-22T04:02:58.211Z,9.60
2022-10-22T04:08:20.160Z,9.60
2022-10-22T04:13:42.865Z,9.10
2022-10-22T04:19:04.979Z,9.10
2022-10-22T04:24:27.589Z,8.70
2022-10-22T04:29:49.381Z,8.90
2022-10-22T04:35:11.135Z,8.30
2022-10-22T04:40:32.716Z,9.40
2022-10-22T04:45:54.639Z,9.80
2022-10-22T04:51:18.925Z,8.30
2022-10-22T04:56:40.626Z,8.10
2022-10-22T05:02:02.349Z,8.10
2022-10-22T05:07:24.256Z,8.20
2022-10-22T05:12:46.434Z,8.90
2022-10-22T05:18:08.459Z,9.50
2022-10-22T05:23:30.616Z,9.50
2022-10-22T05:28:53.087Z,9.30
2022-10-22T05:34:45.816Z,13.80
2022-10-22T05:40:49.228Z,10.00
2022-10-22T05:47:32.043Z,24.00
2022-10-22T05:54:15.034Z,20.40
2022-10-22T06:00:58.278Z,15.00
2022-10-22T06:07:44.192Z,11.40
2022-10-22T06:14:27.121Z,9.90
2022-10-22T06:21:10.176Z,11.20
2022-10-22T06:26:52.705Z,11.30
2022-10-22T06:32:15.101Z,10.40
2022-10-22T06:37:36.896Z,11.10
2022-10-22T06:43:02.144Z,10.00
2022-10-22T06:48:46.947Z,11.30
2022-10-22T06:54:09.124Z,11.00
2022-10-22T06:59:31.817Z,10.60
2022-10-22T07:04:53.779Z,10.80
2022-10-22T07:10:15.941Z,11.60
2022-10-22T07:15:39.499Z,11.50
2022-10-22T07:21:02.526Z,10.50
2022-10-22T07:26:30.922Z,11.20
2022-10-22T07:31:54.701Z,10.70
2022-10-22T07:37:17.139Z,10.10
2022-10-22T07:42:38.882Z,9.90
2022-10-22T07:48:01.963Z,10.60
2022-10-22T07:53:32.804Z,9.60
2022-10-22T07:58:56.095Z,9.50
2022-10-22T08:05:19.555Z,9.30
2022-10-22T08:10:42.083Z,10.70
2022-10-22T08:16:04.411Z,9.70
2022-10-22T08:21:55.788Z,9.70
2022-10-22T08:27:43.479Z,10.50
2022-10-22T08:33:06.122Z,12.60
2022-10-22T08:38:28.953Z,11.00
2022-10-22T08:43:57.042Z,11.20
2022-10-22T08:49:25.913Z,11.10
2022-10-22T08:54:59.637Z,10.90
2022-10-22T09:00:30.170Z,10.60
2022-10-22T09:06:34.955Z,11.50
2022-10-22T09:11:59.821Z,11.00
2022-10-22T09:17:37.070Z,11.00
2022-10-22T09:23:05.647Z,11.70
2022-10-22T09:28:27.585Z,12.00
2022-10-22T09:33:52.196Z,12.20
2022-10-22T09:39:26.932Z,11.20
2022-10-22T09:44:55.301Z,12.00
2022-10-22T09:51:15.187Z,12.20
2022-10-22T09:57:28.710Z,13.10
2022-10-22T10:02:56.713Z,12.60
2022-10-22T10:08:20.096Z,12.30
2022-10-22T10:13:54.204Z,13.70
2022-10-22T10:20:01.414Z,14.00
2022-10-22T10:25:44.304Z,12.50
2022-10-22T10:31:21.675Z,14.00
2022-10-22T10:37:04.963Z,14.90
2022-10-22T10:42:41.406Z,14.20
2022-10-22T10:48:17.941Z,14.10
2022-10-22T10:54:24.305Z,13.50
2022-10-22T11:05:39.339Z,13.70
2022-10-22T11:11:20.059Z,13.30
2022-10-22T11:17:08.261Z,12.40
2022-10-22T11:22:40.135Z,15.30
2022-10-22T11:29:19.664Z,14.50
2022-10-22T11:36:05.399Z,15.50
2022-10-22T11:42:35.961Z,14.20
2022-10-22T11:49:19.190Z,13.00
2022-10-22T11:55:07.261Z,14.70
2022-10-22T12:01:50.444Z,13.70
2022-10-22T12:08:35.983Z,13.60
2022-10-22T12:15:33.891Z,13.50
2022-10-22T12:22:06.006Z,14.60
2022-10-22T12:28:34.574Z,12.40
2022-10-22T12:35:19.659Z,15.00
2022-10-22T12:48:14.779Z,15.60
2022-10-22T12:55:04.929Z,14.90
2022-10-22T13:18:18.751Z,15.60
2022-10-22T13:24:23.937Z,13.90
2022-10-22T13:31:08.425Z,14.20
2022-10-22T13:37:51.914Z,14.50
2022-10-22T13:44:01.292Z,14.70
2022-10-22T13:56:58.556Z,16.30
2022-10-22T14:02:42.197Z,17.40
2022-10-22T14:09:01.108Z,16.50
2022-10-22T14:28:46.086Z,19.00
2022-10-22T14:34:41.296Z,19.90
2022-10-22T14:40:45.874Z,19.20
2022-10-22T14:46:13.669Z,21.80
2022-10-22T14:51:40.574Z,18.40
2022-10-22T14:57:03.741Z,20.80
2022-10-22T15:02:27.651Z,19.60
2022-10-22T15:07:55.606Z,18.10
2022-10-22T15:18:42.243Z,20.00
2022-10-22T15:24:06.989Z,23.10
2022-10-22T15:30:30.670Z,19.50
2022-10-22T15:35:53.688Z,21.50
2022-10-22T15:41:16.257Z,23.10
2022-10-22T15:52:12.857Z,22.40
2022-10-22T15:57:34.703Z,22.10
2022-10-22T16:02:56.347Z,23.10
2022-10-22T16:08:18.197Z,22.90
2022-10-22T16:13:40.042Z,24.80
2022-10-22T16:19:01.878Z,24.50
2022-10-22T16:24:23.773Z,25.60
2022-10-22T16:29:45.743Z,27.60
2022-10-22T16:35:08.650Z,26.00
2022-10-22T16:40:30.662Z,27.30
2022-10-22T16:45:52.705Z,30.90
2022-10-22T16:51:19.042Z,29.20
2022-10-22T16:56:41.237Z,33.30
2022-10-22T17:07:29.663Z,32.40
2022-10-22T17:13:12.133Z,30.60
2022-10-22T17:18:55.045Z,28.30
2022-10-22T17:24:18.907Z,28.00
2022-10-22T17:29:40.881Z,29.70
2022-10-22T17:35:03.376Z,29.80
2022-10-22T17:40:27.127Z,27.20
2022-10-22T17:46:14.823Z,28.00
2022-10-22T17:51:48.973Z,30.10
2022-10-22T17:57:12.756Z,28.50
2022-10-22T18:03:17.579Z,30.60
2022-10-22T18:15:59.650Z,30.40
2022-10-22T18:39:15.243Z,32.80
2022-10-22T18:44:39.457Z,31.80
2022-10-22T18:50:41.433Z,28.90
2022-10-22T18:57:06.032Z,28.20
2022-10-22T19:02:32.024Z,24.40
2022-10-22T19:08:50.647Z,27.30
2022-10-22T19:14:33.746Z,26.20
2022-10-22T19:19:55.935Z,25.90
2022-10-22T19:25:18.097Z,25.90
2022-10-22T19:30:44.708Z,27.30
2022-10-22T19:36:14.345Z,25.70
2022-10-22T19:41:36.999Z,25.30
2022-10-22T19:46:58.822Z,25.70
2022-10-22T19:53:21.373Z,26.80
2022-10-22T20:00:12.106Z,25.10
2022-10-22T20:06:34.944Z,23.80
2022-10-22T20:12:37.354Z,23.10
2022-10-22T20:18:07.834Z,23.90
2022-10-22T20:23:29.610Z,22.30
2022-10-22T20:28:52.216Z,25.50
2022-10-22T20:34:14.310Z,23.70
2022-10-22T20:39:36.134Z,23.80
2022-10-22T20:44:58.147Z,25.20
2022-10-22T20:50:21.448Z,24.70
2022-10-22T20:55:43.562Z,23.70
2022-10-22T21:01:10.642Z,23.20
2022-10-22T21:06:33.145Z,21.70
2022-10-22T21:11:55.138Z,24.20
2022-10-22T21:17:17.041Z,25.20
2022-10-22T21:22:39.169Z,25.00
2022-10-22T21:28:01.374Z,24.40
2022-10-22T21:33:23.359Z,25.20
2022-10-22T21:38:44.860Z,25.00
2022-10-22T21:44:06.835Z,27.60
2022-10-22T21:49:28.660Z,27.80
2022-10-22T21:54:50.426Z,27.40
2022-10-22T22:00:13.048Z,25.40
2022-10-22T22:05:40.722Z,26.10
2022-10-22T22:11:05.227Z,25.10
2022-10-22T22:16:33.850Z,24.60
2022-10-22T22:21:56.120Z,24.30
2022-10-22T22:27:18.003Z,23.70
2022-10-22T22:32:39.657Z,24.70
2022-10-22T22:38:01.456Z,22.10
2022-10-22T22:43:23.563Z,21.90
2022-10-22T22:48:48.309Z,23.40
2022-10-22T22:54:11.493Z,24.90
2022-10-22T22:59:33.568Z,25.50
2022-10-22T23:04:55.368Z,23.10
2022-10-22T23:10:17.385Z,27.40
2022-10-22T23:15:40.503Z,23.70
2022-10-22T23:21:07.518Z,25.30
2022-10-22T23:26:35.911Z,23.90
2022-10-22T23:32:02.568Z,25.10
2022-10-22T23:38:20.156Z,24.60
2022-10-22T23:43:50.770Z,25.40
2022-10-22T23:49:12.677Z,21.70
2022-10-22T23:54:34.649Z,24.80
2022-10-22T23:59:56.373Z,24.00
